Terminal Aerodrome Forecast
Issued by NWS

Home | Current Version | Previous Version | Text Only | Print | Product List | Glossary On
Versions: 1 2 3 4 5 6 7 8 9 10 11 12 13 14 15 16 17 18 19 20 21 22 23
000
FTUS43 KLSX 220531
TAFUIN
TAF
KUIN 220531Z 2206/2306 04006KT P6SM VCSH OVC080
      TEMPO 2206/2208 5SM -SHRA BR
     FM221200 03007KT P6SM SCT010 OVC050
     FM221700 36013KT P6SM BKN050
     FM230300 34011KT P6SM BKN015=

USA.gov is the U.S. government's official web portal to all federal, state and local government web resources and services.